Time;durP1;ratioP1;P1;durP2;ratioP2;P2;SDS_P1;SDS_P2;PMS_P1;PMS_P2;Temp;Humidity;BMP_temperature;BMP_pressure;BME280_temperature;BME280_humidity;BME280_pressure;Samples;Min_cycle;Max_cycle;Signal;HPM_P1;HPM_P2
2021/08/13 00:01:18;;;;;;;12.50;9.50;;;;;;;19.99;67.23;96072.75;5116996;27;20187;-75
2021/08/13 00:03:44;;;;;;;14.23;10.57;;;;;;;19.94;67.94;96065.41;5116943;27;20167;-75
2021/08/13 00:06:09;;;;;;;13.80;10.85;;;;;;;19.91;68.20;96070.25;5116754;27;20214;-76
2021/08/13 00:08:34;;;;;;;15.50;11.07;;;;;;;19.88;67.99;96065.34;5117137;27;20215;-76
2021/08/13 00:10:59;;;;;;;16.85;10.85;;;;;;;19.84;67.83;96062.31;5099794;27;20167;-75
2021/08/13 00:13:25;;;;;;;14.15;9.77;;;;;;;19.85;67.34;96058.66;5099857;27;20171;-75
2021/08/13 00:15:50;;;;;;;13.25;9.45;;;;;;;19.87;67.50;96058.47;5116792;27;20558;-76
2021/08/13 00:18:15;;;;;;;10.60;9.48;;;;;;;19.84;67.43;96067.56;5135387;27;20163;-76
2021/08/13 00:20:41;;;;;;;10.15;8.43;;;;;;;19.84;67.33;96057.03;5099576;27;20221;-74
2021/08/13 00:23:06;;;;;;;10.00;8.10;;;;;;;19.82;66.96;96056.41;5116407;27;20211;-76
2021/08/13 00:25:31;;;;;;;9.48;8.20;;;;;;;19.81;66.95;96057.44;5116683;27;20207;-76
2021/08/13 00:27:57;;;;;;;9.88;8.48;;;;;;;19.79;67.00;96062.91;5116705;27;20172;-75
2021/08/13 00:30:22;;;;;;;9.85;8.77;;;;;;;19.77;66.64;96064.06;5134964;27;20173;-76
2021/08/13 00:32:47;;;;;;;9.60;8.27;;;;;;;19.75;66.94;96061.63;5116236;27;20186;-76
2021/08/13 00:35:13;;;;;;;10.68;8.77;;;;;;;19.69;66.91;96064.22;5116187;27;20197;-76
2021/08/13 00:37:38;;;;;;;9.70;8.57;;;;;;;19.71;66.93;96059.59;5116415;27;20229;-75
2021/08/13 00:40:05;;;;;;;13.40;9.15;;;;;;;19.64;67.37;96066.63;5116013;27;20557;-76
2021/08/13 00:42:30;;;;;;;9.07;8.18;;;;;;;19.59;67.78;96066.38;5098807;27;20220;-76
2021/08/13 00:44:56;;;;;;;10.45;8.23;;;;;;;19.56;68.52;96064.09;5116236;27;20190;-75
2021/08/13 00:47:21;;;;;;;9.52;8.60;;;;;;;19.50;68.61;96063.84;5116211;27;20753;-76
2021/08/13 00:49:46;;;;;;;11.70;9.90;;;;;;;19.54;68.43;96064.31;5134279;27;20175;-75
2021/08/13 00:52:13;;;;;;;14.75;12.02;;;;;;;19.47;68.80;96058.16;5115911;27;20167;-75
2021/08/13 00:54:38;;;;;;;12.38;8.88;;;;;;;19.49;68.62;96059.59;5115884;27;20175;-75
2021/08/13 00:57:04;;;;;;;9.20;8.23;;;;;;;19.61;67.16;96062.53;5122047;27;20215;-75
2021/08/13 00:59:29;;;;;;;11.30;9.57;;;;;;;19.64;66.74;96066.63;5078562;28;20374;-75
2021/08/13 01:01:54;;;;;;;10.13;7.97;;;;;;;19.69;66.84;96064.22;5113412;28;20175;-75
2021/08/13 01:04:20;;;;;;;9.30;8.20;;;;;;;19.72;66.45;96066.50;5113305;28;20179;-75
2021/08/13 01:06:45;;;;;;;9.85;8.38;;;;;;;19.70;66.61;96064.06;5078378;28;20218;-76
2021/08/13 01:09:11;;;;;;;10.07;8.55;;;;;;;19.63;67.30;96059.72;5113388;28;20577;-75
2021/08/13 01:11:44;;;;;;;9.27;8.38;;;;;;;19.61;67.22;96080.16;5078151;28;20651;-75
2021/08/13 01:14:21;;;;;;;10.63;8.88;;;;;;;19.60;66.85;96073.28;5078101;28;20184;-76
2021/08/13 01:16:49;;;;;;;10.52;8.57;;;;;;;19.61;66.56;96075.72;5094571;28;20230;-75
2021/08/13 01:19:35;;;;;;;10.10;8.52;;;;;;;19.61;66.24;96064.34;5077670;28;20175;-76
2021/08/13 01:22:07;;;;;;;13.85;9.13;;;;;;;19.61;66.19;96070.44;5094904;28;20168;-76
2021/08/13 01:24:36;;;;;;;12.20;10.00;;;;;;;19.59;66.21;96071.66;5094985;28;20172;-76
2021/08/13 01:27:06;;;;;;;11.95;8.85;;;;;;;19.64;65.54;96077.97;5094733;28;20671;-75
2021/08/13 01:29:50;;;;;;;9.65;8.48;;;;;;;19.76;65.13;96078.25;5094871;28;20167;-75
2021/08/13 01:32:34;;;;;;;11.25;9.80;;;;;;;19.80;64.80;96076.88;5077486;28;20183;-74
2021/08/13 01:35:13;;;;;;;9.50;8.50;;;;;;;19.96;63.65;96079.19;5094759;28;20727;-75
2021/08/13 01:37:41;;;;;;;10.20;8.48;;;;;;;20.22;61.86;96085.66;5094669;28;20192;-74
2021/08/13 01:40:08;;;;;;;8.65;7.78;;;;;;;20.26;61.74;96082.44;5094715;28;20248;-74
2021/08/13 01:42:34;;;;;;;11.13;8.50;;;;;;;20.33;62.21;96077.22;5077169;28;20267;-73
2021/08/13 01:45:01;;;;;;;10.10;8.95;;;;;;;20.38;62.17;96077.41;5094717;28;20228;-73
2021/08/13 01:47:27;;;;;;;12.05;8.75;;;;;;;20.35;62.63;96083.09;5094520;28;20202;-74
2021/08/13 01:49:53;;;;;;;11.13;8.18;;;;;;;20.31;62.98;96084.47;5094460;28;20183;-74
2021/08/13 01:52:19;;;;;;;9.93;8.20;;;;;;;20.37;62.99;96081.06;5077402;28;20172;-74
2021/08/13 01:54:45;;;;;;;9.77;8.73;;;;;;;20.38;62.76;96078.22;5094319;28;20750;-75
2021/08/13 01:57:10;;;;;;;10.77;8.15;;;;;;;20.35;62.78;96080.47;5094177;28;20203;-74
2021/08/13 01:59:36;;;;;;;9.52;8.07;;;;;;;20.34;62.86;96081.47;5094383;28;20175;-74
2021/08/13 02:02:01;;;;;;;10.40;9.38;;;;;;;20.28;62.56;96074.34;5077087;28;20263;-74
2021/08/13 02:04:27;;;;;;;11.30;8.77;;;;;;;20.27;62.90;96075.34;5094222;28;20167;-74
2021/08/13 02:06:52;;;;;;;8.85;7.90;;;;;;;20.31;62.53;96077.38;5077204;28;20257;-74
2021/08/13 02:09:18;;;;;;;11.85;8.43;;;;;;;20.28;62.57;96076.97;5094252;28;20651;-74
2021/08/13 02:11:43;;;;;;;11.00;8.73;;;;;;;20.36;62.16;96076.81;5093684;28;20205;-74
2021/08/13 02:14:09;;;;;;;8.75;7.90;;;;;;;20.40;62.52;96064.03;5094186;28;20175;-74
2021/08/13 02:16:35;;;;;;;10.95;8.18;;;;;;;20.39;62.21;96057.94;5077072;28;20203;-75
2021/08/13 02:19:36;;;;;;;9.23;7.35;;;;;;;20.39;62.02;96063.22;5093781;28;20179;-75
2021/08/13 02:22:02;;;;;;;8.55;7.75;;;;;;;20.37;62.39;96057.34;5038874;28;20185;-76
2021/08/13 02:24:27;;;;;;;10.07;8.00;;;;;;;20.33;62.59;96054.28;5094141;28;20187;-75
2021/08/13 02:26:54;;;;;;;11.90;7.68;;;;;;;20.40;62.30;96056.13;5093813;28;20618;-75
2021/08/13 02:29:21;;;;;;;9.45;7.65;;;;;;;20.38;62.61;96053.69;5111407;28;20542;-76
2021/08/13 02:31:46;;;;;;;10.05;7.65;;;;;;;20.40;62.41;96049.03;5077025;28;20272;-74
2021/08/13 02:34:12;;;;;;;10.02;8.27;;;;;;;20.38;62.44;96048.41;5111735;28;20259;-75
2021/08/13 02:36:50;;;;;;;10.57;8.40;;;;;;;20.39;62.37;96052.66;5111904;28;20210;-75
2021/08/13 02:39:22;;;;;;;8.75;7.88;;;;;;;20.42;62.51;96068.13;5093856;28;20179;-75
2021/08/13 02:41:48;;;;;;;9.68;8.30;;;;;;;20.42;62.47;96062.84;5077012;28;20562;-75
2021/08/13 02:44:15;;;;;;;11.15;8.40;;;;;;;20.45;62.12;96062.47;5093818;28;20172;-75
2021/08/13 02:46:57;;;;;;;8.75;7.85;;;;;;;20.46;62.48;96058.81;5093443;28;20199;-75
2021/08/13 02:49:25;;;;;;;8.50;7.70;;;;;;;20.37;63.34;96055.50;5076830;28;20201;-75
2021/08/13 02:51:54;;;;;;;9.45;7.70;;;;;;;20.34;63.17;96049.81;5093607;28;20540;-75
2021/08/13 02:54:24;;;;;;;9.25;8.07;;;;;;;20.27;64.21;96043.69;5093736;28;20206;-75
2021/08/13 02:56:51;;;;;;;9.02;8.13;;;;;;;20.30;63.61;96045.94;5093751;28;20215;-75
2021/08/13 02:59:18;;;;;;;9.05;8.18;;;;;;;20.35;63.12;96054.09;5093595;28;20523;-75
2021/08/13 03:01:44;;;;;;;8.07;7.15;;;;;;;20.46;60.52;96058.00;5093470;28;20164;-75
2021/08/13 03:04:10;;;;;;;10.50;8.32;;;;;;;20.62;59.46;96068.22;5093628;28;20172;-75
2021/08/13 03:06:38;;;;;;;9.60;7.40;;;;;;;20.62;59.64;96063.75;5093573;28;20682;-74
2021/08/13 03:09:04;;;;;;;9.30;7.75;;;;;;;20.68;59.30;96061.34;5093567;28;20260;-75
2021/08/13 03:11:30;;;;;;;8.52;7.65;;;;;;;20.72;59.53;96062.56;5093227;28;20191;-74
2021/08/13 03:13:57;;;;;;;12.02;7.93;;;;;;;20.67;59.72;96075.53;5076429;28;20556;-75
2021/08/13 03:16:22;;;;;;;8.90;7.60;;;;;;;20.61;59.74;96083.25;5076496;28;20649;-75
2021/08/13 03:18:48;;;;;;;9.32;7.50;;;;;;;20.59;60.80;96103.75;5093142;28;20263;-75
2021/08/13 03:21:14;;;;;;;8.40;7.57;;;;;;;20.51;62.36;96113.66;5093427;28;20187;-76
2021/08/13 03:23:40;;;;;;;10.68;7.75;;;;;;;20.36;63.94;96122.47;5093327;28;20179;-75
2021/08/13 03:26:09;;;;;;;12.25;8.77;;;;;;;20.19;67.21;96099.22;5111540;28;20670;-75
2021/08/13 03:28:35;;;;;;;13.95;9.68;;;;;;;20.03;68.92;96110.88;5092911;28;20225;-75
2021/08/13 03:31:00;;;;;;;11.15;8.82;;;;;;;19.97;69.67;96115.13;5092383;28;20172;-74
2021/08/13 03:33:26;;;;;;;11.90;9.57;;;;;;;19.85;71.29;96100.00;5111466;28;20654;-75
2021/08/13 03:35:51;;;;;;;10.73;9.02;;;;;;;19.77;73.00;96090.44;5111444;28;20203;-75
2021/08/13 03:38:17;;;;;;;12.80;9.68;;;;;;;19.74;73.97;96093.47;5093379;28;20719;-75
2021/08/13 03:40:42;;;;;;;13.27;8.82;;;;;;;19.73;74.52;96110.28;5079648;28;20602;-75
2021/08/13 03:43:08;;;;;;;11.50;10.32;;;;;;;19.63;74.79;96121.13;5115122;28;20715;-76
2021/08/13 03:45:33;;;;;;;14.82;9.85;;;;;;;19.60;74.61;96123.31;5096997;28;20164;-76
2021/08/13 03:47:58;;;;;;;11.13;8.93;;;;;;;19.52;75.09;96127.72;5080123;28;20217;-75
2021/08/13 03:50:24;;;;;;;11.55;9.10;;;;;;;19.44;76.38;96119.13;5114967;28;20200;-75
2021/08/13 03:52:49;;;;;;;11.15;9.57;;;;;;;19.23;77.14;96098.84;5079581;28;20260;-75
2021/08/13 03:55:14;;;;;;;10.23;9.30;;;;;;;19.30;76.65;96096.28;5096695;28;20578;-75
2021/08/13 03:57:40;;;;;;;12.90;9.70;;;;;;;19.17;78.16;96086.44;5096809;28;20219;-75
2021/08/13 04:00:07;;;;;;;11.70;9.63;;;;;;;19.17;78.36;96089.91;5114925;28;20172;-74
2021/08/13 04:02:32;;;;;;;13.00;10.15;;;;;;;19.10;78.41;96094.28;5114620;28;20258;-75
2021/08/13 04:04:57;;;;;;;11.40;10.00;;;;;;;19.12;78.16;96104.63;5096716;28;20202;-74
2021/08/13 04:07:23;;;;;;;12.85;10.55;;;;;;;19.07;78.41;96099.91;5114565;28;20269;-75
2021/08/13 04:09:48;;;;;;;11.48;9.73;;;;;;;19.06;78.62;96102.72;5096603;28;20587;-75
2021/08/13 04:12:13;;;;;;;12.48;9.77;;;;;;;19.01;78.06;96105.94;5096390;28;20164;-76
2021/08/13 04:14:39;;;;;;;11.95;9.73;;;;;;;18.99;78.94;96105.28;5096401;28;20225;-76
2021/08/13 04:17:04;;;;;;;14.98;10.30;;;;;;;19.00;79.79;96114.03;5096297;28;20216;-74
2021/08/13 04:19:29;;;;;;;13.15;10.63;;;;;;;18.96;79.36;96109.09;5114582;28;20731;-76
2021/08/13 04:21:55;;;;;;;13.98;10.30;;;;;;;19.00;78.97;96108.75;5114259;28;20172;-75
2021/08/13 04:24:20;;;;;;;12.50;10.18;;;;;;;18.93;79.45;96114.75;5096176;28;20168;-75
2021/08/13 04:26:45;;;;;;;12.07;10.05;;;;;;;18.95;78.42;96118.00;5095885;28;20230;-75
2021/08/13 04:29:10;;;;;;;12.25;9.95;;;;;;;18.87;78.36;96115.47;5114451;28;20175;-75
2021/08/13 04:31:36;;;;;;;12.80;9.65;;;;;;;18.94;77.87;96116.38;5113924;28;20180;-75
2021/08/13 04:34:01;;;;;;;11.80;9.95;;;;;;;18.95;77.94;96110.13;5114265;28;20203;-76
2021/08/13 04:36:27;;;;;;;11.38;9.65;;;;;;;18.91;77.62;96110.69;5095965;28;20613;-74
2021/08/13 04:38:53;;;;;;;11.48;10.18;;;;;;;18.89;77.16;96112.66;5114179;28;20172;-75
2021/08/13 04:41:18;;;;;;;12.20;9.55;;;;;;;18.90;77.76;96109.03;5078817;28;20313;-75
2021/08/13 04:43:43;;;;;;;10.55;9.55;;;;;;;18.84;78.02;96113.22;5095870;28;20168;-75
2021/08/13 04:46:08;;;;;;;10.95;9.85;;;;;;;18.82;79.10;96117.88;5113859;28;20278;-75
2021/08/13 04:48:34;;;;;;;15.25;10.10;;;;;;;18.78;79.12;96115.78;5095888;28;20206;-75
2021/08/13 04:50:59;;;;;;;11.55;9.93;;;;;;;18.76;79.45;96113.34;5094656;28;20172;-74
2021/08/13 04:53:24;;;;;;;10.57;9.57;;;;;;;18.73;79.50;96112.88;5095508;28;20176;-75
2021/08/13 04:55:50;;;;;;;11.05;9.45;;;;;;;18.77;79.71;96117.59;5095395;28;20281;-76
2021/08/13 04:58:15;;;;;;;12.48;9.68;;;;;;;18.73;79.93;96112.88;5113815;28;20647;-74
2021/08/13 05:00:41;;;;;;;13.63;9.40;;;;;;;18.77;79.15;96120.22;5113599;28;20183;-75
2021/08/13 05:03:06;;;;;;;12.57;9.18;;;;;;;18.78;79.33;96102.63;5078392;28;20212;-75
2021/08/13 05:05:31;;;;;;;13.45;10.25;;;;;;;18.77;79.08;96112.34;5095443;28;20175;-75
2021/08/13 05:07:57;;;;;;;14.18;9.60;;;;;;;18.81;78.68;96115.41;5095432;28;20179;-75
2021/08/13 05:10:22;;;;;;;10.23;9.23;;;;;;;18.83;78.72;96113.44;5095429;28;20172;-75
2021/08/13 05:12:48;;;;;;;12.50;11.30;;;;;;;18.93;78.43;96114.75;5078150;28;20195;-75
2021/08/13 05:15:14;;;;;;;13.63;12.32;;;;;;;19.20;77.56;96117.66;5095011;28;20671;-75
2021/08/13 05:17:39;;;;;;;13.90;11.05;;;;;;;19.35;76.46;96112.34;5078195;28;20187;-76
2021/08/13 05:20:06;;;;;;;11.65;10.55;;;;;;;19.47;76.40;96116.91;5095324;28;20647;-75
2021/08/13 05:22:33;;;;;;;11.55;10.45;;;;;;;19.57;76.70;96128.97;5095025;28;20179;-75
2021/08/13 05:25:07;;;;;;;12.00;10.30;;;;;;;19.82;75.47;96124.94;5095482;28;20251;-75
2021/08/13 05:27:33;;;;;;;13.15;11.07;;;;;;;19.86;74.32;96128.00;5094518;28;20662;-75
2021/08/13 05:29:58;;;;;;;13.07;11.07;;;;;;;20.00;74.65;96129.75;5113199;28;20176;-74
2021/08/13 05:32:24;;;;;;;12.18;10.43;;;;;;;20.21;73.97;96132.31;5094940;28;20191;-76
2021/08/13 05:34:50;;;;;;;11.52;10.43;;;;;;;20.53;72.90;96130.91;5094984;28;20176;-75
2021/08/13 05:37:15;;;;;;;13.18;10.73;;;;;;;20.71;71.77;96135.66;5113024;28;20237;-76
2021/08/13 05:39:40;;;;;;;12.90;11.27;;;;;;;20.86;72.61;96136.34;5113024;28;20175;-74
2021/08/13 05:42:06;;;;;;;12.05;10.48;;;;;;;20.98;71.46;96138.41;5077558;28;20282;-75
2021/08/13 05:44:31;;;;;;;13.98;11.13;;;;;;;20.88;72.23;96139.59;5115081;27;20685;-74
2021/08/13 05:46:57;;;;;;;11.68;10.48;;;;;;;21.04;70.16;96145.53;5133080;27;20709;-74
2021/08/13 05:49:22;;;;;;;11.32;10.23;;;;;;;21.15;71.40;96144.97;5133216;27;20678;-74
2021/08/13 05:51:47;;;;;;;14.15;10.10;;;;;;;20.94;72.37;96153.84;5114057;27;20266;-74
2021/08/13 05:54:13;;;;;;;12.38;9.55;;;;;;;21.11;71.49;96152.44;5096708;27;20178;-74
2021/08/13 05:56:38;;;;;;;13.20;10.20;;;;;;;21.12;70.31;96156.75;5097095;27;20242;-74
2021/08/13 05:59:04;;;;;;;10.88;9.32;;;;;;;20.86;70.87;96164.56;5114596;27;20611;-75
2021/08/13 06:01:29;;;;;;;11.05;9.25;;;;;;;21.03;71.12;96165.84;5111988;27;20281;-73
2021/08/13 06:03:54;;;;;;;9.85;8.85;;;;;;;21.20;69.94;96167.13;5114025;27;20773;-75
2021/08/13 06:06:20;;;;;;;10.32;8.57;;;;;;;21.59;68.58;96162.97;5114230;27;20187;-74
2021/08/13 06:08:47;;;;;;;10.38;9.32;;;;;;;21.46;67.98;96157.66;5113835;27;20549;-74
2021/08/13 06:11:12;;;;;;;10.55;8.98;;;;;;;21.60;67.31;96158.50;5114309;27;20254;-74
2021/08/13 06:13:37;;;;;;;10.60;9.02;;;;;;;21.59;66.95;96159.50;5114154;27;20266;-73
2021/08/13 06:16:03;;;;;;;10.85;9.55;;;;;;;21.89;66.18;96159.94;5114142;27;20604;-74
2021/08/13 06:18:28;;;;;;;10.30;9.18;;;;;;;22.16;66.21;96156.28;5114166;27;20194;-75
2021/08/13 06:20:53;;;;;;;10.90;9.43;;;;;;;22.65;64.65;96164.75;5132516;27;20622;-74
2021/08/13 06:23:19;;;;;;;13.82;9.73;;;;;;;23.51;61.72;96164.41;5113837;27;20236;-75
2021/08/13 06:25:44;;;;;;;9.82;8.60;;;;;;;24.69;58.50;96172.47;5113426;28;20191;-74
2021/08/13 06:28:09;;;;;;;9.50;8.50;;;;;;;24.64;56.99;96167.78;5132531;27;20222;-74
2021/08/13 06:30:35;;;;;;;10.77;8.65;;;;;;;24.57;57.76;96159.13;5114006;27;20231;-74
2021/08/13 06:33:00;;;;;;;9.02;8.15;;;;;;;24.45;58.49;96163.50;5113251;27;20183;-75
2021/08/13 06:35:27;;;;;;;11.38;8.50;;;;;;;24.34;56.81;96164.25;5132004;27;20535;-75
2021/08/13 06:37:54;;;;;;;10.93;9.50;;;;;;;24.07;58.87;96166.28;5113692;28;20299;-73
2021/08/13 06:40:20;;;;;;;10.02;9.02;;;;;;;25.51;55.34;96176.38;5113782;28;20175;-75
2021/08/13 06:42:45;;;;;;;10.40;9.02;;;;;;;26.57;51.44;96174.72;5113323;28;20220;-74
2021/08/13 06:45:14;;;;;;;8.77;7.88;;;;;;;28.53;46.86;96169.03;5113876;28;20171;-75
2021/08/13 06:47:39;;;;;;;10.13;9.05;;;;;;;29.08;44.61;96178.91;5113663;28;20206;-75
2021/08/13 06:50:05;;;;;;;8.75;7.78;;;;;;;28.93;42.89;96179.50;5132575;28;20182;-74
2021/08/13 06:52:31;;;;;;;8.90;8.10;;;;;;;30.97;39.68;96182.19;5113178;28;20174;-74
2021/08/13 06:54:57;;;;;;;9.77;7.75;;;;;;;30.96;39.00;96182.44;5113521;28;20182;-75
2021/08/13 06:57:22;;;;;;;8.88;8.02;;;;;;;30.55;38.62;96187.53;5096835;28;20191;-77
2021/08/13 06:59:47;;;;;;;9.95;8.07;;;;;;;31.02;38.31;96186.78;5132236;28;20167;-76
2021/08/13 07:02:13;;;;;;;9.07;8.18;;;;;;;30.68;39.44;96195.19;5096498;28;20178;-75
2021/08/13 07:04:38;;;;;;;10.10;8.25;;;;;;;30.37;39.12;96187.97;5113846;28;20203;-76
2021/08/13 07:07:03;;;;;;;8.38;7.50;;;;;;;31.01;37.08;96188.66;5114034;28;20221;-76
2021/08/13 07:09:30;;;;;;;9.05;7.93;;;;;;;30.81;37.25;96188.53;5113980;28;20207;-75
2021/08/13 07:11:55;;;;;;;8.05;7.25;;;;;;;29.76;40.70;96192.75;5131752;28;20168;-74
2021/08/13 07:14:20;;;;;;;9.65;8.13;;;;;;;29.33;42.16;96184.56;5133052;27;20177;-74
2021/08/13 07:16:47;;;;;;;8.98;8.07;;;;;;;30.14;41.39;96181.91;5117681;27;20251;-74
2021/08/13 07:19:12;;;;;;;9.68;8.45;;;;;;;30.58;39.25;96187.03;5118013;27;20170;-75
2021/08/13 07:21:37;;;;;;;9.32;8.43;;;;;;;29.56;42.40;96191.50;5116685;27;20179;-74
2021/08/13 07:24:03;;;;;;;9.52;8.57;;;;;;;29.31;43.38;96183.16;5117740;27;20167;-75
2021/08/13 07:26:28;;;;;;;10.70;8.93;;;;;;;28.91;43.71;96186.97;5135301;27;20705;-75
2021/08/13 07:28:53;;;;;;;9.43;8.50;;;;;;;28.36;45.23;96190.44;5135633;27;20167;-74
2021/08/13 07:31:19;;;;;;;9.40;8.25;;;;;;;28.08;45.06;96188.63;5099474;27;20177;-74
2021/08/13 07:33:44;;;;;;;9.43;8.13;;;;;;;27.78;47.40;96194.25;5117515;27;20180;-74
2021/08/13 07:36:09;;;;;;;9.02;8.23;;;;;;;27.08;48.92;96197.16;5117398;27;20206;-75
2021/08/13 07:38:39;;;;;;;10.55;9.55;;;;;;;26.54;50.66;96207.16;5117650;27;20587;-75
2021/08/13 07:41:05;;;;;;;9.40;8.43;;;;;;;26.03;53.35;96195.28;5117548;27;20215;-75
2021/08/13 07:43:30;;;;;;;10.25;9.02;;;;;;;26.09;53.66;96194.38;5099543;27;20271;-74
2021/08/13 07:45:55;;;;;;;8.77;7.97;;;;;;;26.02;54.79;96201.66;5135553;27;20195;-75
2021/08/13 07:48:20;;;;;;;9.18;8.35;;;;;;;25.99;53.64;96204.78;5116986;27;20266;-74
2021/08/13 07:50:46;;;;;;;9.70;8.80;;;;;;;25.63;54.75;96211.00;5117098;27;20634;-73
2021/08/13 07:53:11;;;;;;;9.85;8.90;;;;;;;25.41;55.65;96218.66;5117008;27;20179;-73
2021/08/13 07:55:36;;;;;;;10.10;9.07;;;;;;;25.17;56.37;96217.72;5117980;27;20203;-75
2021/08/13 07:58:02;;;;;;;9.68;8.57;;;;;;;24.93;56.80;96222.06;5135108;27;20185;-75
2021/08/13 08:00:27;;;;;;;9.55;8.57;;;;;;;25.07;56.51;96218.22;5116882;27;20838;-75
2021/08/13 08:02:53;;;;;;;11.63;8.52;;;;;;;25.03;57.09;96224.22;5134588;27;20171;-75
2021/08/13 08:05:18;;;;;;;11.07;9.32;;;;;;;24.77;57.45;96227.94;5135365;27;20203;-75
2021/08/13 08:07:43;;;;;;;11.75;9.23;;;;;;;25.06;56.79;96226.44;5116677;27;20196;-75
2021/08/13 08:10:09;;;;;;;9.70;8.77;;;;;;;24.81;55.98;96224.63;5116807;27;20572;-74
2021/08/13 08:12:34;;;;;;;9.82;8.93;;;;;;;25.00;55.15;96225.47;5134421;27;20172;-74
2021/08/13 08:15:00;;;;;;;11.35;8.27;;;;;;;24.54;58.41;96215.28;5134400;27;20179;-74
2021/08/13 08:17:25;;;;;;;9.52;8.63;;;;;;;24.59;54.31;96231.38;5116669;27;20195;-72
2021/08/13 08:19:50;;;;;;;12.18;8.50;;;;;;;24.69;53.67;96236.19;5116516;27;20226;-73
2021/08/13 08:22:15;;;;;;;9.57;8.32;;;;;;;24.63;54.26;96247.69;5115981;27;20668;-73
2021/08/13 08:24:41;;;;;;;11.10;8.55;;;;;;;24.81;53.42;96251.19;5114316;27;20278;-74
2021/08/13 08:27:06;;;;;;;9.32;8.40;;;;;;;24.86;53.33;96250.53;5115312;27;20191;-74
2021/08/13 08:29:31;;;;;;;9.63;8.52;;;;;;;25.33;52.70;96243.69;5116257;27;20171;-74
2021/08/13 08:31:57;;;;;;;10.30;8.75;;;;;;;25.34;52.57;96244.50;5098950;27;20266;-74
2021/08/13 08:34:22;;;;;;;8.43;7.63;;;;;;;25.24;52.40;96245.03;5105694;28;20262;-75
2021/08/13 08:36:48;;;;;;;10.38;8.93;;;;;;;24.93;54.75;96243.31;5095952;28;20203;-74
2021/08/13 08:39:13;;;;;;;10.45;9.38;;;;;;;24.69;57.12;96247.63;5095638;28;20172;-73
2021/08/13 08:41:38;;;;;;;9.75;8.75;;;;;;;24.46;57.04;96250.88;5095612;28;20651;-75
2021/08/13 08:44:04;;;;;;;9.73;8.55;;;;;;;24.48;55.95;96248.03;5095342;28;20571;-75
2021/08/13 08:46:30;;;;;;;13.45;9.85;;;;;;;24.43;58.07;96247.88;5095590;28;20199;-75
2021/08/13 08:48:56;;;;;;;10.15;9.10;;;;;;;24.52;57.93;96254.53;5099100;27;20207;-75
2021/08/13 08:51:22;;;;;;;11.38;9.13;;;;;;;24.06;58.46;96254.88;5109502;27;20183;-75
2021/08/13 08:53:53;;;;;;;9.77;8.77;;;;;;;24.01;59.68;96260.81;5117035;27;20171;-75
2021/08/13 08:56:21;;;;;;;10.48;9.02;;;;;;;24.19;57.43;96257.41;5093783;28;20239;-76
2021/08/13 08:58:47;;;;;;;11.00;8.93;;;;;;;24.40;59.70;96265.06;5087906;28;20600;-76
2021/08/13 09:01:14;;;;;;;10.30;9.25;;;;;;;25.03;57.34;96264.88;5095315;28;20176;-75
2021/08/13 09:03:41;;;;;;;11.63;9.05;;;;;;;25.27;56.28;96267.72;5095113;28;20186;-76
2021/08/13 09:06:06;;;;;;;11.85;9.18;;;;;;;25.23;55.37;96264.66;5095310;28;20667;-75
2021/08/13 09:08:32;;;;;;;10.07;8.70;;;;;;;25.23;55.61;96258.53;5113110;28;20187;-75
2021/08/13 09:10:57;;;;;;;9.65;8.70;;;;;;;25.53;53.79;96262.06;5095123;28;20184;-74
2021/08/13 09:13:26;;;;;;;8.88;7.97;;;;;;;25.91;53.37;96267.09;5111558;28;20176;-74
2021/08/13 09:15:52;;;;;;;10.55;8.65;;;;;;;25.63;54.86;96261.53;5095330;28;20208;-76
2021/08/13 09:18:25;;;;;;;9.50;8.00;;;;;;;25.49;54.93;96258.22;5130156;27;20175;-74
2021/08/13 09:20:52;;;;;;;10.20;8.18;;;;;;;25.88;51.99;96261.41;5115428;27;20179;-74
2021/08/13 09:23:40;;;;;;;11.45;8.32;;;;;;;25.37;54.02;96260.84;5114989;27;20680;-74
2021/08/13 09:26:09;;;;;;;12.68;7.60;;;;;;;25.98;52.38;96259.03;5098253;27;20233;-74
2021/08/13 09:28:49;;;;;;;8.90;7.80;;;;;;;26.38;52.00;96255.78;5098273;27;20589;-75
2021/08/13 09:31:17;;;;;;;12.20;7.78;;;;;;;26.61;51.13;96266.47;5098210;27;20257;-75
2021/08/13 09:33:45;;;;;;;11.88;8.43;;;;;;;26.73;51.28;96267.28;5133179;27;20216;-75
2021/08/13 09:36:11;;;;;;;9.10;8.07;;;;;;;26.79;49.29;96269.00;5115085;27;20207;-75
2021/08/13 09:38:36;;;;;;;10.70;8.50;;;;;;;26.70;50.32;96280.25;5114511;27;20201;-75
2021/08/13 09:41:11;;;;;;;10.02;8.13;;;;;;;26.69;50.34;96281.31;5115217;27;20175;-75
2021/08/13 09:43:59;;;;;;;9.50;8.05;;;;;;;26.25;51.92;96280.75;5114723;27;20167;-75
2021/08/13 09:46:26;;;;;;;8.15;7.35;;;;;;;26.66;51.67;96279.06;5114879;27;20721;-77
2021/08/13 09:48:52;;;;;;;10.50;7.60;;;;;;;26.73;51.20;96274.44;5114976;27;20187;-75
2021/08/13 09:51:32;;;;;;;11.40;8.05;;;;;;;26.91;50.47;96273.53;5114653;27;20562;-75
2021/08/13 09:54:03;;;;;;;10.38;8.35;;;;;;;26.77;50.51;96278.28;5114599;27;20181;-74
2021/08/13 09:56:30;;;;;;;9.90;7.38;;;;;;;27.09;49.70;96276.91;5114582;27;20221;-76
2021/08/13 09:59:09;;;;;;;10.10;8.02;;;;;;;27.54;50.24;96280.75;5114499;27;20171;-76
2021/08/13 10:01:42;;;;;;;8.90;8.00;;;;;;;27.52;50.52;96275.66;5114372;27;20217;-76
2021/08/13 10:04:08;;;;;;;9.40;7.72;;;;;;;27.58;50.46;96279.25;5133107;27;20185;-76
2021/08/13 10:06:35;;;;;;;8.70;7.80;;;;;;;27.38;49.92;96280.44;5114468;27;20269;-75
2021/08/13 10:09:00;;;;;;;9.77;8.27;;;;;;;27.32;50.30;96284.06;5097403;27;20167;-76
2021/08/13 10:11:26;;;;;;;14.07;7.35;;;;;;;27.54;49.62;96278.88;5096807;27;20179;-75
2021/08/13 10:13:51;;;;;;;9.23;7.60;;;;;;;27.81;49.83;96284.50;5132243;27;20584;-76
2021/08/13 10:16:25;;;;;;;9.20;8.10;;;;;;;27.87;50.57;96277.41;5114094;27;20804;-76
2021/08/13 10:18:55;;;;;;;8.18;7.10;;;;;;;27.97;49.81;96276.78;5105492;27;20182;-76
2021/08/13 10:21:20;;;;;;;8.93;8.02;;;;;;;27.33;51.05;96285.69;5097095;27;20186;-76
2021/08/13 10:23:45;;;;;;;9.60;8.70;;;;;;;27.42;51.29;96287.97;5096107;28;20171;-77
2021/08/13 10:26:11;;;;;;;13.82;8.57;;;;;;;27.53;49.87;96285.28;5096562;27;20193;-76
2021/08/13 10:28:37;;;;;;;11.40;8.50;;;;;;;27.24;50.70;96283.59;5097239;27;20266;-75
2021/08/13 10:31:03;;;;;;;9.77;8.13;;;;;;;27.40;51.03;96288.22;5114029;27;20638;-75
2021/08/13 10:33:28;;;;;;;11.02;8.50;;;;;;;27.10;51.30;96281.19;5113419;27;20546;-75
2021/08/13 10:35:58;;;;;;;9.32;7.88;;;;;;;26.99;52.87;96283.84;5113377;28;20201;-75
2021/08/13 10:38:25;;;;;;;13.75;7.43;;;;;;;27.02;51.70;96283.34;5096443;28;20175;-75
2021/08/13 10:40:51;;;;;;;9.35;8.13;;;;;;;26.76;52.12;96281.97;5113690;28;20484;-75
2021/08/13 10:43:17;;;;;;;11.00;7.85;;;;;;;26.85;52.42;96277.09;5113377;28;20172;-75
2021/08/13 10:45:43;;;;;;;8.93;8.02;;;;;;;26.76;53.99;96272.13;5113398;28;20190;-75
2021/08/13 10:48:12;;;;;;;11.00;8.95;;;;;;;26.53;54.88;96277.47;5113419;27;20179;-74
2021/08/13 10:50:38;;;;;;;12.90;7.38;;;;;;;26.78;53.24;96275.41;5117045;27;20185;-75
2021/08/13 10:53:03;;;;;;;12.43;8.15;;;;;;;26.98;52.16;96272.38;5117553;27;20167;-75
2021/08/13 10:55:53;;;;;;;10.30;7.85;;;;;;;27.46;52.42;96265.13;5123397;27;20249;-74
2021/08/13 10:58:40;;;;;;;9.10;7.75;;;;;;;27.16;53.45;96267.97;5127514;27;20178;-76
2021/08/13 11:01:10;;;;;;;10.00;7.65;;;;;;;26.95;53.28;96269.38;5140882;27;20186;-76
2021/08/13 11:03:37;;;;;;;9.13;7.55;;;;;;;27.29;51.98;96270.38;5114000;27;20194;-74
2021/08/13 11:06:03;;;;;;;11.43;6.90;;;;;;;27.42;50.64;96267.44;5099300;27;20751;-75
2021/08/13 11:08:40;;;;;;;10.93;7.03;;;;;;;27.79;50.00;96256.44;5116456;27;20175;-76
2021/08/13 11:11:10;;;;;;;8.52;6.47;;;;;;;27.80;50.47;96256.19;5136340;27;20171;-75
2021/08/13 11:13:42;;;;;;;8.73;7.28;;;;;;;27.69;50.73;96259.75;5118043;27;20175;-75
2021/08/13 11:16:43;;;;;;;9.88;6.85;;;;;;;27.94;50.48;96268.22;5117500;27;20294;-74
2021/08/13 11:19:11;;;;;;;11.00;7.78;;;;;;;27.58;50.23;96266.72;5032921;28;20260;-75
2021/08/13 11:21:40;;;;;;;9.63;6.88;;;;;;;27.81;49.61;96268.50;5036182;28;20205;-75
2021/08/13 11:24:09;;;;;;;9.70;6.78;;;;;;;27.80;50.22;96261.53;5004748;28;20190;-75
2021/08/13 11:26:47;;;;;;;10.85;7.43;;;;;;;27.86;50.39;96265.94;5019270;28;20713;-75